• vieta
  • image
  • image
  • image

Šiandien

Pirmadienis, 28 Liepa 2014

Orų prognozė

Šiauliai 27 °C
   

Orų prognozė aviacijai

[source: ADDS]
METAR
EYSA 281550Z 15011KT 9999 FEW050CB BKN059 27/17 Q1014 TEMPO 3000 TSRA =
TAF
TAF EYSA 281400Z 2815/2824 18014KT 9000 BKN030 TEMPO 2815/2818 VRB28KT 1500 TSRA BKN020CB TEMPO 2818/2820 3000 TSRA BKN020CB BECMG 2820/2821 20004KT 5000 MIFG SCT020 =
SR / SS: 02:30 / 18:38 UTC (EYSA 2014-07-28)

Lankytojai

Mes turime 7 svečius online

tic logo lt